createdAt,value
2022-08-20T00:01:01.989Z,1.70
2022-08-20T00:03:32.942Z,2.50
2022-08-20T00:06:13.074Z,3.30
2022-08-20T00:08:39.935Z,2.53
2022-08-20T00:11:09.923Z,2.40
2022-08-20T00:13:40.371Z,2.03
2022-08-20T00:16:08.020Z,2.03
2022-08-20T00:18:36.990Z,2.07
2022-08-20T00:21:08.381Z,2.33
2022-08-20T00:23:44.252Z,2.03
2022-08-20T00:26:12.302Z,2.07
2022-08-20T00:28:39.867Z,2.10
2022-08-20T00:31:11.604Z,1.80
2022-08-20T00:33:38.572Z,1.87
2022-08-20T00:36:09.248Z,2.70
2022-08-20T00:38:37.965Z,2.27
2022-08-20T00:41:06.918Z,2.03
2022-08-20T00:43:52.335Z,2.27
2022-08-20T00:46:31.668Z,2.27
2022-08-20T00:48:59.606Z,2.40
2022-08-20T00:51:40.914Z,2.20
2022-08-20T00:54:25.540Z,1.83
2022-08-20T00:57:01.401Z,2.17
2022-08-20T00:59:31.203Z,2.60
2022-08-20T01:01:58.287Z,1.97
2022-08-20T01:04:27.999Z,1.80
2022-08-20T01:06:55.000Z,1.90
2022-08-20T01:09:50.329Z,1.83
2022-08-20T01:12:10.263Z,2.23
2022-08-20T01:14:46.483Z,2.90
2022-08-20T01:17:22.145Z,3.60
2022-08-20T01:20:08.276Z,2.00
2022-08-20T01:23:17.234Z,2.07
2022-08-20T01:25:45.570Z,2.63
2022-08-20T01:28:14.892Z,2.20
2022-08-20T01:30:42.385Z,2.10
2022-08-20T01:33:09.111Z,2.00
2022-08-20T01:35:38.685Z,2.00
2022-08-20T01:38:06.637Z,2.00
2022-08-20T01:41:00.049Z,4.43
2022-08-20T01:43:27.157Z,2.00
2022-08-20T01:45:53.941Z,2.20
2022-08-20T01:48:22.112Z,1.80
2022-08-20T01:51:15.981Z,3.27
2022-08-20T01:53:47.233Z,1.87
2022-08-20T01:56:18.004Z,2.07
2022-08-20T01:58:49.632Z,2.23
2022-08-20T02:01:46.163Z,1.93
2022-08-20T02:04:15.584Z,2.37
2022-08-20T02:06:56.406Z,2.93
2022-08-20T02:09:25.497Z,3.30
2022-08-20T02:11:53.303Z,2.03
2022-08-20T02:14:20.260Z,3.87
2022-08-20T02:16:54.816Z,2.87
2022-08-20T02:19:35.401Z,1.80
2022-08-20T02:22:08.817Z,3.07
2022-08-20T02:24:35.408Z,1.97
2022-08-20T02:27:02.115Z,2.20
2022-08-20T02:29:29.051Z,3.00
2022-08-20T02:32:24.163Z,3.43
2022-08-20T02:34:43.077Z,4.03
2022-08-20T02:37:10.712Z,1.93
2022-08-20T02:39:37.524Z,3.23
2022-08-20T02:42:04.535Z,3.00
2022-08-20T02:44:31.332Z,2.50
2022-08-20T02:46:58.441Z,2.27
2022-08-20T02:49:25.090Z,2.00
2022-08-20T02:51:51.770Z,1.93
2022-08-20T02:54:18.330Z,2.30
2022-08-20T02:56:45.033Z,2.93
2022-08-20T02:59:12.532Z,2.20
2022-08-20T03:01:45.783Z,2.20
2022-08-20T03:04:12.381Z,2.13
2022-08-20T03:06:38.969Z,2.27
2022-08-20T03:09:06.288Z,2.33
2022-08-20T03:11:32.902Z,4.53
2022-08-20T03:14:00.603Z,2.10
2022-08-20T03:16:27.436Z,2.13
2022-08-20T03:18:55.258Z,2.20
2022-08-20T03:21:21.886Z,2.10
2022-08-20T03:23:48.640Z,2.30
2022-08-20T03:26:16.360Z,2.23
2022-08-20T03:28:43.352Z,2.30
2022-08-20T03:31:10.453Z,2.40
2022-08-20T03:33:48.961Z,2.40
2022-08-20T03:36:22.163Z,2.80
2022-08-20T03:38:59.416Z,2.77
2022-08-20T03:41:26.347Z,2.57
2022-08-20T03:43:53.164Z,3.17
2022-08-20T03:46:23.641Z,2.40
2022-08-20T03:48:56.367Z,2.83
2022-08-20T03:51:31.830Z,2.60
2022-08-20T03:54:18.378Z,3.23
2022-08-20T03:56:44.971Z,2.63
2022-08-20T03:59:11.580Z,5.20
2022-08-20T04:01:46.081Z,2.67
2022-08-20T04:04:13.882Z,2.80
2022-08-20T04:06:41.422Z,4.83
2022-08-20T04:09:11.560Z,5.60
2022-08-20T04:11:39.236Z,5.17
2022-08-20T04:14:05.818Z,5.70
2022-08-20T04:16:33.063Z,4.40
2022-08-20T04:19:02.213Z,5.27
2022-08-20T04:21:32.836Z,3.47
2022-08-20T04:24:04.416Z,3.07
2022-08-20T04:26:31.778Z,4.27
2022-08-20T04:28:58.435Z,3.13
2022-08-20T04:31:25.575Z,2.97
2022-08-20T04:33:52.774Z,3.13
2022-08-20T04:36:19.520Z,3.30
2022-08-20T04:38:49.674Z,3.30
2022-08-20T04:41:22.853Z,4.57
2022-08-20T04:43:51.720Z,3.23
2022-08-20T04:46:19.198Z,3.73
2022-08-20T04:48:49.073Z,3.27
2022-08-20T04:51:18.608Z,3.90
2022-08-20T04:53:52.277Z,4.63
2022-08-20T04:56:23.744Z,5.40
2022-08-20T04:58:52.206Z,3.47
2022-08-20T05:01:18.799Z,3.63
2022-08-20T05:03:47.536Z,4.40
2022-08-20T05:06:15.956Z,4.30
2022-08-20T05:08:42.772Z,3.67
2022-08-20T05:11:33.142Z,3.83
2022-08-20T05:13:56.806Z,3.90
2022-08-20T05:16:24.382Z,3.60
2022-08-20T05:18:52.322Z,6.00
2022-08-20T05:21:20.415Z,6.20
2022-08-20T05:23:47.258Z,5.30
2022-08-20T05:26:15.670Z,4.67
2022-08-20T05:28:54.104Z,3.97
2022-08-20T05:31:31.416Z,3.67
2022-08-20T05:33:59.536Z,3.70
2022-08-20T05:36:26.214Z,3.90
2022-08-20T05:38:54.736Z,3.70
2022-08-20T05:41:29.455Z,3.90
2022-08-20T05:43:59.371Z,4.07
2022-08-20T05:46:26.002Z,4.37
2022-08-20T05:48:52.727Z,3.73
2022-08-20T05:51:19.291Z,4.30
2022-08-20T05:53:45.893Z,4.40
2022-08-20T05:56:12.494Z,3.67
2022-08-20T05:58:39.153Z,3.87
2022-08-20T06:01:06.087Z,3.83
2022-08-20T06:03:51.263Z,4.07
2022-08-20T06:06:39.006Z,3.83
2022-08-20T06:09:04.502Z,3.90
2022-08-20T06:11:35.115Z,3.47
2022-08-20T06:14:03.839Z,4.93
2022-08-20T06:16:30.745Z,4.60
2022-08-20T06:18:58.449Z,3.40
2022-08-20T06:21:25.437Z,3.53
2022-08-20T06:23:58.490Z,3.50
2022-08-20T06:26:30.060Z,3.43
2022-08-20T06:29:01.425Z,4.30
2022-08-20T06:31:28.453Z,3.77
2022-08-20T06:33:55.319Z,3.93
2022-08-20T06:36:22.083Z,3.70
2022-08-20T06:38:48.910Z,3.73
2022-08-20T06:41:16.432Z,3.53
2022-08-20T06:43:43.071Z,4.73
2022-08-20T06:46:09.715Z,5.53
2022-08-20T06:48:36.631Z,4.13
2022-08-20T06:51:03.298Z,4.47
2022-08-20T06:53:29.948Z,3.90
2022-08-20T06:55:59.161Z,4.17
2022-08-20T06:58:37.705Z,4.33
2022-08-20T07:01:09.918Z,6.03
2022-08-20T07:03:54.402Z,4.03
2022-08-20T07:06:22.128Z,4.47
2022-08-20T07:08:48.727Z,5.17
2022-08-20T07:11:15.333Z,4.50
2022-08-20T07:13:41.984Z,4.00
2022-08-20T07:16:08.635Z,6.03
2022-08-20T07:18:35.587Z,4.20
2022-08-20T07:21:02.171Z,3.53
2022-08-20T07:23:29.570Z,4.27
2022-08-20T07:25:56.176Z,4.30
2022-08-20T07:28:24.976Z,4.00
2022-08-20T07:31:13.661Z,4.93
2022-08-20T07:33:44.305Z,4.90
2022-08-20T07:36:12.638Z,4.60
2022-08-20T07:38:39.414Z,4.20
2022-08-20T07:41:09.826Z,3.63
2022-08-20T07:43:36.588Z,3.63
2022-08-20T07:46:09.142Z,3.87
2022-08-20T07:48:39.842Z,3.67
2022-08-20T07:51:08.072Z,4.30
2022-08-20T07:53:36.914Z,3.60
2022-08-20T07:56:07.325Z,3.70
2022-08-20T07:58:36.669Z,3.60
2022-08-20T08:01:05.556Z,4.73
2022-08-20T08:03:40.743Z,3.70
2022-08-20T08:06:29.198Z,4.33
2022-08-20T08:08:58.383Z,6.33
2022-08-20T08:11:25.027Z,5.50
2022-08-20T08:13:51.922Z,4.70
2022-08-20T08:16:19.981Z,4.10
2022-08-20T08:18:51.915Z,4.57
2022-08-20T08:21:19.286Z,3.90
2022-08-20T08:23:45.854Z,5.47
2022-08-20T08:26:16.300Z,4.30
2022-08-20T08:28:46.460Z,5.07
2022-08-20T08:31:14.033Z,4.27
2022-08-20T08:33:41.701Z,4.03
2022-08-20T08:36:14.371Z,3.93
2022-08-20T08:38:44.127Z,6.40
2022-08-20T08:41:32.315Z,4.50
2022-08-20T08:44:10.889Z,3.97
2022-08-20T08:46:41.596Z,4.10
2022-08-20T08:49:14.593Z,5.43
2022-08-20T08:51:45.074Z,5.33
2022-08-20T08:54:17.330Z,4.20
2022-08-20T08:56:44.122Z,3.97
2022-08-20T08:59:17.937Z,3.95
2022-08-20T09:01:56.885Z,3.50
2022-08-20T09:04:32.365Z,3.80
2022-08-20T09:07:01.547Z,3.65
2022-08-20T09:09:32.563Z,4.47
2022-08-20T09:12:11.926Z,5.75
2022-08-20T09:14:38.930Z,3.47
2022-08-20T09:17:05.976Z,3.50
2022-08-20T09:19:32.694Z,3.38
2022-08-20T09:21:59.617Z,2.50
2022-08-20T09:24:26.210Z,2.57
2022-08-20T09:26:52.788Z,2.10
2022-08-20T09:29:19.363Z,3.30
2022-08-20T09:31:46.413Z,5.07
2022-08-20T09:34:13.563Z,2.83
2022-08-20T09:36:40.179Z,2.37
2022-08-20T09:39:07.029Z,2.40
2022-08-20T09:41:34.499Z,2.37
2022-08-20T09:44:01.755Z,4.23
2022-08-20T09:46:28.373Z,3.13
2022-08-20T09:48:55.366Z,2.60
2022-08-20T09:51:22.758Z,7.90
2022-08-20T09:53:49.866Z,4.70
2022-08-20T09:56:17.122Z,5.90
2022-08-20T09:58:52.765Z,3.10
2022-08-20T10:01:21.815Z,3.17
2022-08-20T10:03:49.429Z,2.30
2022-08-20T10:06:17.783Z,2.90
2022-08-20T10:08:44.394Z,2.70
2022-08-20T10:11:11.439Z,1.77
2022-08-20T10:13:38.035Z,1.60
2022-08-20T10:16:04.980Z,2.50
2022-08-20T10:18:31.542Z,1.73
2022-08-20T10:20:58.157Z,1.77
2022-08-20T10:23:24.729Z,1.20
2022-08-20T10:25:51.355Z,1.63
2022-08-20T10:28:17.930Z,1.20
2022-08-20T10:30:45.175Z,1.20
2022-08-20T10:33:11.763Z,1.90
2022-08-20T10:35:38.374Z,2.10
2022-08-20T10:38:04.949Z,2.70
2022-08-20T10:40:31.741Z,1.63
2022-08-20T10:42:58.290Z,4.73
2022-08-20T10:45:25.750Z,2.60
2022-08-20T10:47:52.428Z,1.23
2022-08-20T10:50:19.982Z,1.13
2022-08-20T10:52:47.067Z,1.47
2022-08-20T10:55:13.955Z,0.93
2022-08-20T10:57:41.724Z,1.87
2022-08-20T11:00:12.822Z,1.40
2022-08-20T11:02:39.580Z,1.47
2022-08-20T11:05:08.123Z,1.13
2022-08-20T11:07:54.969Z,2.50
2022-08-20T11:10:25.668Z,1.30
2022-08-20T11:12:52.476Z,1.20
2022-08-20T11:15:19.285Z,1.50
2022-08-20T11:17:46.087Z,1.73
2022-08-20T11:20:15.428Z,1.90
2022-08-20T11:22:42.067Z,1.83
2022-08-20T11:25:09.340Z,1.47
2022-08-20T11:27:39.855Z,1.40
2022-08-20T11:30:10.113Z,1.40
2022-08-20T11:32:37.065Z,1.20
2022-08-20T11:35:24.495Z,1.30
2022-08-20T11:37:52.487Z,1.77
2022-08-20T11:40:19.707Z,1.40
2022-08-20T11:43:11.038Z,3.70
2022-08-20T11:45:37.560Z,1.63
2022-08-20T11:48:04.728Z,4.70
2022-08-20T11:50:31.377Z,1.80
2022-08-20T11:52:58.073Z,1.47
2022-08-20T11:55:30.119Z,3.30
2022-08-20T11:57:59.799Z,4.10
2022-08-20T12:00:32.755Z,2.70
2022-08-20T12:03:08.665Z,3.63
2022-08-20T12:05:40.401Z,6.83
2022-08-20T12:08:08.282Z,5.50
2022-08-20T12:10:35.469Z,2.80
2022-08-20T12:13:03.448Z,1.30
2022-08-20T12:15:32.647Z,4.70
2022-08-20T12:17:59.527Z,3.63
2022-08-20T12:20:26.202Z,2.33
2022-08-20T12:22:53.946Z,3.30
2022-08-20T12:25:21.209Z,1.40
2022-08-20T12:27:47.821Z,1.50
2022-08-20T12:30:18.136Z,1.50
2022-08-20T12:32:44.845Z,3.67
2022-08-20T12:35:13.519Z,2.40
2022-08-20T12:37:40.662Z,3.27
2022-08-20T12:40:11.442Z,1.90
2022-08-20T12:42:38.614Z,2.03
2022-08-20T12:45:05.672Z,5.53
2022-08-20T12:47:40.446Z,3.13
2022-08-20T12:50:14.426Z,2.17
2022-08-20T12:52:42.138Z,8.13
2022-08-20T12:55:10.354Z,2.50
2022-08-20T12:57:41.664Z,2.70
2022-08-20T13:00:32.389Z,2.50
2022-08-20T13:03:00.847Z,2.60
2022-08-20T13:05:29.101Z,5.67
2022-08-20T13:07:56.027Z,4.80
2022-08-20T13:10:29.098Z,3.60
2022-08-20T13:12:55.771Z,5.37
2022-08-20T13:15:23.030Z,2.93
2022-08-20T13:17:54.731Z,2.07
2022-08-20T13:20:25.543Z,2.00
2022-08-20T13:22:57.733Z,1.70
2022-08-20T13:25:25.221Z,1.73
2022-08-20T13:27:57.846Z,1.70
2022-08-20T13:30:25.086Z,1.60
2022-08-20T13:32:51.813Z,1.60
2022-08-20T13:35:19.646Z,2.28
2022-08-20T13:37:47.750Z,1.52
2022-08-20T13:40:14.402Z,2.80
2022-08-20T13:42:41.081Z,3.17
2022-08-20T13:45:08.554Z,2.47
2022-08-20T13:47:37.905Z,3.67
2022-08-20T13:50:17.489Z,2.95
2022-08-20T13:52:44.904Z,2.00
2022-08-20T13:55:15.714Z,2.05
2022-08-20T13:57:44.022Z,3.08
2022-08-20T14:00:14.822Z,2.45
2022-08-20T14:02:42.498Z,3.33
2022-08-20T14:05:10.423Z,3.10
2022-08-20T14:07:37.770Z,2.42
2022-08-20T14:10:08.686Z,2.70
2022-08-20T14:12:35.396Z,2.33
2022-08-20T14:15:01.950Z,3.35
2022-08-20T14:17:32.036Z,2.70
2022-08-20T14:20:05.691Z,2.25
2022-08-20T14:22:33.483Z,2.50
2022-08-20T14:25:03.408Z,2.45
2022-08-20T14:27:32.562Z,1.90
2022-08-20T14:30:00.092Z,2.25
2022-08-20T14:32:27.524Z,2.97
2022-08-20T14:34:56.529Z,2.10
2022-08-20T14:37:27.011Z,2.78
2022-08-20T14:39:56.857Z,1.95
2022-08-20T14:42:26.368Z,2.58
2022-08-20T14:44:53.394Z,2.63
2022-08-20T14:47:22.971Z,2.00
2022-08-20T14:49:51.898Z,1.30
2022-08-20T14:52:22.485Z,1.83
2022-08-20T14:54:49.896Z,1.05
2022-08-20T14:57:18.910Z,1.35
2022-08-20T14:59:46.917Z,1.70
2022-08-20T15:02:15.385Z,3.15
2022-08-20T15:04:43.187Z,1.23
2022-08-20T15:07:26.150Z,1.00
2022-08-20T15:09:53.069Z,1.20
2022-08-20T15:12:19.708Z,1.92
2022-08-20T15:14:47.970Z,1.10
2022-08-20T15:17:21.489Z,1.27
2022-08-20T15:19:48.501Z,1.67
2022-08-20T15:22:16.175Z,1.38
2022-08-20T15:24:42.767Z,1.10
2022-08-20T15:27:17.052Z,1.30
2022-08-20T15:29:46.252Z,1.33
2022-08-20T15:32:13.367Z,2.28
2022-08-20T15:34:40.767Z,2.05
2022-08-20T15:37:08.653Z,2.53
2022-08-20T15:39:35.239Z,1.50
2022-08-20T15:42:01.893Z,1.45
2022-08-20T15:44:28.599Z,1.83
2022-08-20T15:46:55.191Z,2.72
2022-08-20T15:49:23.934Z,1.80
2022-08-20T15:51:50.876Z,1.60
2022-08-20T15:54:19.301Z,1.77
2022-08-20T15:57:06.910Z,2.38
2022-08-20T16:00:00.863Z,2.28
2022-08-20T16:03:04.214Z,2.00
2022-08-20T16:05:53.274Z,2.03
2022-08-20T16:08:19.934Z,2.88
2022-08-20T16:11:05.090Z,2.50
2022-08-20T16:13:51.389Z,1.80
2022-08-20T16:16:26.726Z,2.20
2022-08-20T16:18:54.120Z,2.42
2022-08-20T16:21:44.526Z,1.63
2022-08-20T16:24:13.998Z,2.28
2022-08-20T16:27:10.379Z,3.70
2022-08-20T16:30:07.291Z,2.00
2022-08-20T16:32:40.851Z,2.70
2022-08-20T16:35:14.355Z,1.80
2022-08-20T16:37:55.939Z,2.97
2022-08-20T16:40:27.194Z,2.45
2022-08-20T16:42:57.192Z,3.08
2022-08-20T16:45:31.391Z,1.73
2022-08-20T16:48:01.562Z,1.65
2022-08-20T16:50:57.976Z,1.95
2022-08-20T16:53:26.386Z,2.95
2022-08-20T16:55:54.129Z,2.47
2022-08-20T16:58:20.909Z,3.40
2022-08-20T17:00:48.614Z,1.95
2022-08-20T17:03:38.539Z,1.90
2022-08-20T17:06:37.038Z,2.55
2022-08-20T17:09:15.542Z,3.97
2022-08-20T17:11:47.697Z,2.28
2022-08-20T17:14:17.721Z,3.63
2022-08-20T17:16:47.761Z,2.83
2022-08-20T17:19:29.051Z,2.28
2022-08-20T17:22:07.170Z,5.13
2022-08-20T17:24:33.811Z,1.90
2022-08-20T17:27:03.750Z,3.20
2022-08-20T17:29:47.082Z,3.30
2022-08-20T17:32:20.781Z,2.73
2022-08-20T17:34:50.997Z,3.23
2022-08-20T17:37:23.026Z,2.97
2022-08-20T17:39:53.889Z,3.17
2022-08-20T17:42:22.250Z,3.00
2022-08-20T17:45:05.262Z,2.17
2022-08-20T17:47:35.982Z,2.43
2022-08-20T17:50:29.461Z,3.07
2022-08-20T17:53:01.285Z,3.53
2022-08-20T17:55:32.103Z,2.43
2022-08-20T17:58:02.635Z,2.90
2022-08-20T18:00:29.297Z,2.67
2022-08-20T18:03:14.628Z,2.13
2022-08-20T18:05:42.282Z,4.93
2022-08-20T18:08:18.108Z,2.43
2022-08-20T18:11:21.865Z,3.13
2022-08-20T18:14:05.551Z,2.30
2022-08-20T18:16:41.358Z,2.63
2022-08-20T18:19:31.293Z,3.53
2022-08-20T18:22:08.062Z,3.03
2022-08-20T18:25:03.449Z,3.43
2022-08-20T18:27:42.087Z,2.83
2022-08-20T18:30:18.842Z,2.57
2022-08-20T18:32:46.857Z,3.33
2022-08-20T18:35:32.887Z,3.00
2022-08-20T18:38:31.511Z,2.53
2022-08-20T18:41:11.398Z,2.50
2022-08-20T18:43:38.729Z,2.67
2022-08-20T18:46:14.700Z,3.33
2022-08-20T18:49:01.994Z,2.73
2022-08-20T18:51:48.130Z,3.30
2022-08-20T18:54:43.168Z,2.53
2022-08-20T18:57:23.633Z,3.10
2022-08-20T19:00:02.085Z,4.60
2022-08-20T19:02:33.217Z,3.83
2022-08-20T19:05:06.810Z,5.37
2022-08-20T19:07:47.943Z,4.40
2022-08-20T19:10:48.006Z,4.00
2022-08-20T19:13:39.450Z,3.90
2022-08-20T19:16:11.127Z,3.73
2022-08-20T19:18:46.883Z,3.43
2022-08-20T19:21:16.217Z,3.90
2022-08-20T19:23:52.157Z,3.73
2022-08-20T19:26:25.934Z,3.37
2022-08-20T19:29:08.304Z,4.73
2022-08-20T19:31:35.562Z,3.53
2022-08-20T19:34:19.039Z,3.10
2022-08-20T19:36:58.690Z,3.27
2022-08-20T19:39:29.828Z,3.13
2022-08-20T19:42:01.911Z,4.80
2022-08-20T19:44:48.418Z,4.07
2022-08-20T19:47:28.570Z,3.67
2022-08-20T19:50:12.609Z,5.13
2022-08-20T19:53:03.628Z,3.37
2022-08-20T19:55:36.346Z,5.20
2022-08-20T19:58:07.322Z,4.63
2022-08-20T20:00:44.841Z,4.03
2022-08-20T20:03:26.891Z,4.03
2022-08-20T20:06:00.740Z,5.87
2022-08-20T20:08:36.719Z,4.00
2022-08-20T20:11:04.165Z,3.50
2022-08-20T20:13:35.965Z,5.93
2022-08-20T20:16:07.574Z,3.80
2022-08-20T20:18:38.643Z,2.30
2022-08-20T20:21:33.264Z,5.90
2022-08-20T20:24:01.215Z,4.70
2022-08-20T20:26:34.646Z,3.10
2022-08-20T20:29:05.924Z,4.90
2022-08-20T20:31:37.557Z,2.77
2022-08-20T20:34:10.204Z,3.77
2022-08-20T20:36:37.217Z,3.93
2022-08-20T20:39:09.238Z,3.73
2022-08-20T20:41:38.377Z,4.27
2022-08-20T20:44:19.582Z,3.50
2022-08-20T20:46:47.906Z,4.03
2022-08-20T20:49:41.217Z,2.67
2022-08-20T20:52:17.893Z,3.70
2022-08-20T20:54:46.398Z,2.57
2022-08-20T20:57:16.221Z,4.23
2022-08-20T20:59:43.364Z,4.27
2022-08-20T21:02:10.577Z,5.53
2022-08-20T21:04:42.367Z,3.50
2022-08-20T21:07:11.077Z,4.50
2022-08-20T21:09:39.174Z,2.93
2022-08-20T21:12:06.369Z,4.23
2022-08-20T21:14:33.472Z,4.20
2022-08-20T21:17:01.642Z,4.33
2022-08-20T21:19:29.261Z,5.77
2022-08-20T21:21:56.798Z,4.37
2022-08-20T21:24:23.972Z,5.13
2022-08-20T21:26:51.760Z,6.83
2022-08-20T21:29:23.336Z,4.33
2022-08-20T21:31:50.377Z,3.77
2022-08-20T21:34:17.574Z,5.10
2022-08-20T21:36:45.004Z,3.47
2022-08-20T21:39:12.223Z,3.53
2022-08-20T21:41:39.986Z,5.43
2022-08-20T21:44:21.321Z,5.50
2022-08-20T21:46:48.865Z,3.77
2022-08-20T21:49:16.014Z,4.47
2022-08-20T21:51:43.298Z,4.63
2022-08-20T21:54:10.302Z,3.93
2022-08-20T21:56:37.679Z,3.30
2022-08-20T21:59:05.423Z,4.07
2022-08-20T22:01:32.940Z,7.77
2022-08-20T22:03:59.979Z,8.53
2022-08-20T22:06:27.209Z,4.67
2022-08-20T22:08:54.285Z,5.77
2022-08-20T22:11:21.365Z,5.07
2022-08-20T22:13:48.423Z,5.03
2022-08-20T22:16:18.158Z,5.67
2022-08-20T22:18:45.447Z,5.23
2022-08-20T22:21:15.762Z,3.50
2022-08-20T22:23:42.841Z,4.50
2022-08-20T22:26:09.788Z,4.70
2022-08-20T22:28:37.059Z,6.83
2022-08-20T22:31:04.529Z,3.97
2022-08-20T22:33:31.822Z,5.60
2022-08-20T22:35:59.232Z,6.60
2022-08-20T22:38:26.642Z,4.50
2022-08-20T22:40:54.058Z,4.23
2022-08-20T22:43:21.651Z,3.80
2022-08-20T22:45:49.788Z,4.13
2022-08-20T22:48:18.661Z,4.40
2022-08-20T22:50:45.992Z,2.90
2022-08-20T22:53:13.735Z,3.17
2022-08-20T22:55:40.855Z,4.80
2022-08-20T22:58:08.701Z,5.33
2022-08-20T23:00:38.145Z,5.17
2022-08-20T23:03:05.709Z,5.07
2022-08-20T23:05:34.780Z,3.87
2022-08-20T23:08:02.319Z,3.33
2022-08-20T23:10:30.333Z,4.40
2022-08-20T23:12:58.415Z,5.70
2022-08-20T23:15:27.029Z,4.30
2022-08-20T23:18:01.085Z,4.10
2022-08-20T23:20:28.134Z,4.80
2022-08-20T23:22:55.751Z,2.50
2022-08-20T23:25:23.011Z,4.97
2022-08-20T23:27:53.422Z,4.53
2022-08-20T23:30:21.318Z,4.73
2022-08-20T23:32:48.540Z,4.80
2022-08-20T23:35:16.154Z,3.83
2022-08-20T23:37:45.865Z,6.70
2022-08-20T23:40:13.801Z,2.80
2022-08-20T23:42:40.893Z,4.33
2022-08-20T23:45:08.498Z,4.97
2022-08-20T23:47:36.179Z,4.17
2022-08-20T23:50:03.549Z,4.23
2022-08-20T23:52:30.720Z,4.03
2022-08-20T23:54:57.977Z,5.50
2022-08-20T23:57:25.078Z,3.27
2022-08-20T23:59:53.157Z,5.23
